createdAt,value
2023-09-08T00:01:51.491Z,8.60
2023-09-08T00:04:18.388Z,9.35
2023-09-08T00:06:45.073Z,8.50
2023-09-08T00:09:11.702Z,8.95
2023-09-08T00:11:38.341Z,9.68
2023-09-08T00:14:05.034Z,9.80
2023-09-08T00:16:31.996Z,8.65
2023-09-08T00:18:59.830Z,9.45
2023-09-08T00:21:26.889Z,9.88
2023-09-08T00:23:53.736Z,8.73
2023-09-08T00:26:20.751Z,8.57
2023-09-08T00:28:48.502Z,8.80
2023-09-08T00:31:15.378Z,8.05
2023-09-08T00:33:45.661Z,9.57
2023-09-08T00:36:13.521Z,8.63
2023-09-08T00:38:40.285Z,8.63
2023-09-08T00:41:07.079Z,8.65
2023-09-08T00:43:33.689Z,10.32
2023-09-08T00:46:02.194Z,8.50
2023-09-08T00:48:29.039Z,9.13
2023-09-08T00:50:57.430Z,8.57
2023-09-08T00:53:24.431Z,8.73
2023-09-08T00:55:51.796Z,8.70
2023-09-08T00:58:18.586Z,8.65
2023-09-08T01:00:46.074Z,8.95
2023-09-08T01:03:13.128Z,8.30
2023-09-08T01:05:40.362Z,7.68
2023-09-08T01:08:07.517Z,7.95
2023-09-08T01:10:34.320Z,7.72
2023-09-08T01:13:00.985Z,8.07
2023-09-08T01:15:27.706Z,7.95
2023-09-08T01:17:54.380Z,8.30
2023-09-08T01:20:25.840Z,7.72
2023-09-08T01:25:25.917Z,7.70
2023-09-08T01:27:56.148Z,7.85
2023-09-08T01:30:24.378Z,8.20
2023-09-08T01:32:52.518Z,8.38
2023-09-08T01:35:19.307Z,7.75
2023-09-08T01:37:46.930Z,8.60
2023-09-08T01:40:14.002Z,8.63
2023-09-08T01:42:40.767Z,8.30
2023-09-08T01:45:08.250Z,9.48
2023-09-08T01:47:35.192Z,7.68
2023-09-08T01:50:02.044Z,9.20
2023-09-08T01:52:28.861Z,8.45
2023-09-08T01:54:55.760Z,8.75
2023-09-08T01:57:22.459Z,8.02
2023-09-08T01:59:51.815Z,8.02
2023-09-08T02:02:18.448Z,8.07
2023-09-08T02:04:45.287Z,8.35
2023-09-08T02:07:12.028Z,6.95
2023-09-08T02:09:39.199Z,7.15
2023-09-08T02:12:06.114Z,7.60
2023-09-08T02:14:32.741Z,7.25
2023-09-08T02:16:59.474Z,8.35
2023-09-08T02:19:26.199Z,8.30
2023-09-08T02:21:52.951Z,8.07
2023-09-08T02:24:19.646Z,8.45
2023-09-08T02:26:46.312Z,8.65
2023-09-08T02:29:12.975Z,9.32
2023-09-08T02:31:39.612Z,9.15
2023-09-08T02:34:06.317Z,8.73
2023-09-08T02:36:32.978Z,9.80
2023-09-08T02:39:00.664Z,7.75
2023-09-08T02:41:27.338Z,8.10
2023-09-08T02:43:53.979Z,8.32
2023-09-08T02:46:20.778Z,8.05
2023-09-08T02:48:47.563Z,9.07
2023-09-08T02:51:14.272Z,8.82
2023-09-08T02:53:41.116Z,8.77
2023-09-08T02:56:10.604Z,9.52
2023-09-08T02:58:37.798Z,8.90
2023-09-08T03:01:22.981Z,7.70
2023-09-08T03:03:50.208Z,8.40
2023-09-08T03:06:21.423Z,7.60
2023-09-08T03:08:48.092Z,7.40
2023-09-08T03:11:14.802Z,7.78
2023-09-08T03:13:41.499Z,7.78
2023-09-08T03:16:08.785Z,8.32
2023-09-08T03:18:38.148Z,8.30
2023-09-08T03:21:10.740Z,7.80
2023-09-08T03:23:41.272Z,7.20
2023-09-08T03:26:08.413Z,7.35
2023-09-08T03:28:36.011Z,8.38
2023-09-08T03:31:03.162Z,8.90
2023-09-08T03:33:29.974Z,8.40
2023-09-08T03:35:56.751Z,7.22
2023-09-08T03:38:23.672Z,7.32
2023-09-08T03:40:50.407Z,7.63
2023-09-08T03:43:17.343Z,7.63
2023-09-08T03:45:44.121Z,6.97
2023-09-08T03:48:11.294Z,6.57
2023-09-08T03:50:38.074Z,7.28
2023-09-08T03:53:05.116Z,8.07
2023-09-08T03:55:31.788Z,7.07
2023-09-08T03:57:58.628Z,8.05
2023-09-08T04:00:25.378Z,7.05
2023-09-08T04:02:53.109Z,7.20
2023-09-08T04:05:19.834Z,6.80
2023-09-08T04:07:46.964Z,8.23
2023-09-08T04:10:13.885Z,7.68
2023-09-08T04:12:41.153Z,6.78
2023-09-08T04:15:08.078Z,7.38
2023-09-08T04:17:34.973Z,6.75
2023-09-08T04:20:01.632Z,6.82
2023-09-08T04:22:28.313Z,6.57
2023-09-08T04:24:55.533Z,6.68
2023-09-08T04:27:22.270Z,6.35
2023-09-08T04:29:49.029Z,7.00
2023-09-08T04:32:15.696Z,8.05
2023-09-08T04:34:42.812Z,5.95
2023-09-08T04:37:09.678Z,6.90
2023-09-08T04:39:38.290Z,7.40
2023-09-08T04:42:05.259Z,6.45
2023-09-08T04:44:31.923Z,6.82
2023-09-08T04:46:58.633Z,6.88
2023-09-08T04:49:25.462Z,6.40
2023-09-08T04:51:52.255Z,6.93
2023-09-08T04:54:18.873Z,6.13
2023-09-08T04:56:45.550Z,6.05
2023-09-08T04:59:12.341Z,6.53
2023-09-08T05:01:39.104Z,5.85
2023-09-08T05:04:06.224Z,5.50
2023-09-08T05:06:32.961Z,5.80
2023-09-08T05:09:01.024Z,4.50
2023-09-08T05:11:28.440Z,7.38
2023-09-08T05:13:55.204Z,4.13
2023-09-08T05:16:37.578Z,5.32
2023-09-08T05:19:04.775Z,4.65
2023-09-08T05:21:32.407Z,4.20
2023-09-08T05:23:59.302Z,4.13
2023-09-08T05:26:25.973Z,5.22
2023-09-08T05:28:52.627Z,5.55
2023-09-08T05:31:19.318Z,5.35
2023-09-08T05:33:46.194Z,4.10
2023-09-08T05:36:16.121Z,4.85
2023-09-08T05:38:42.902Z,4.57
2023-09-08T05:41:09.613Z,3.63
2023-09-08T05:43:36.466Z,4.40
2023-09-08T05:46:03.219Z,4.68
2023-09-08T05:48:29.934Z,4.63
2023-09-08T05:50:56.984Z,4.85
2023-09-08T05:53:23.594Z,4.20
2023-09-08T05:55:50.342Z,4.50
2023-09-08T05:58:17.115Z,3.97
2023-09-08T06:00:43.870Z,3.78
2023-09-08T06:03:10.691Z,4.35
2023-09-08T06:05:37.612Z,3.70
2023-09-08T06:08:07.782Z,4.50
2023-09-08T06:10:34.964Z,4.00
2023-09-08T06:13:02.822Z,3.65
2023-09-08T06:15:29.604Z,3.88
2023-09-08T06:17:56.725Z,3.63
2023-09-08T06:20:23.411Z,3.60
2023-09-08T06:22:50.155Z,4.88
2023-09-08T06:25:17.415Z,4.03
2023-09-08T06:27:44.203Z,4.65
2023-09-08T06:30:11.242Z,4.35
2023-09-08T06:32:37.942Z,3.67
2023-09-08T06:35:04.843Z,4.03
2023-09-08T06:37:35.949Z,5.32
2023-09-08T06:40:02.626Z,4.00
2023-09-08T06:42:29.228Z,4.47
2023-09-08T06:44:55.944Z,3.50
2023-09-08T06:47:22.519Z,3.70
2023-09-08T06:49:49.376Z,3.85
2023-09-08T06:52:15.993Z,3.38
2023-09-08T06:54:42.659Z,3.67
2023-09-08T06:57:09.420Z,3.08
2023-09-08T06:59:36.043Z,3.78
2023-09-08T07:02:03.015Z,4.07
2023-09-08T07:04:29.944Z,3.25
2023-09-08T07:06:56.646Z,2.85
2023-09-08T07:09:23.341Z,3.28
2023-09-08T07:11:49.892Z,4.13
2023-09-08T07:14:16.461Z,3.15
2023-09-08T07:16:43.310Z,3.72
2023-09-08T07:19:12.787Z,3.20
2023-09-08T07:21:39.768Z,3.45
2023-09-08T07:24:06.663Z,3.30
2023-09-08T07:26:33.360Z,3.47
2023-09-08T07:29:00.016Z,2.78
2023-09-08T07:31:26.866Z,3.42
2023-09-08T07:33:53.813Z,2.90
2023-09-08T07:36:20.580Z,3.35
2023-09-08T07:38:47.293Z,2.70
2023-09-08T07:41:13.902Z,3.63
2023-09-08T07:43:42.336Z,3.38
2023-09-08T07:46:09.496Z,3.03
2023-09-08T07:48:36.505Z,2.65
2023-09-08T07:51:03.457Z,3.10
2023-09-08T07:53:30.321Z,2.88
2023-09-08T07:55:57.000Z,2.50
2023-09-08T07:58:24.021Z,2.50
2023-09-08T08:00:50.815Z,2.42
2023-09-08T08:03:20.458Z,2.90
2023-09-08T08:05:47.194Z,3.95
2023-09-08T08:08:13.918Z,2.03
2023-09-08T08:10:42.220Z,2.70
2023-09-08T08:13:08.829Z,2.70
2023-09-08T08:15:42.489Z,2.63
2023-09-08T08:18:11.195Z,3.47
2023-09-08T08:20:39.288Z,2.92
2023-09-08T08:23:06.678Z,2.80
2023-09-08T08:25:33.854Z,2.58
2023-09-08T08:28:02.539Z,2.97
2023-09-08T08:30:29.646Z,2.97
2023-09-08T08:32:56.536Z,2.30
2023-09-08T08:35:23.336Z,2.83
2023-09-08T08:37:49.987Z,2.70
2023-09-08T08:40:16.593Z,2.65
2023-09-08T08:42:43.703Z,2.70
2023-09-08T08:45:10.503Z,2.33
2023-09-08T08:47:37.504Z,2.50
2023-09-08T08:50:05.683Z,2.50
2023-09-08T08:52:32.417Z,3.13
2023-09-08T08:54:59.229Z,2.65
2023-09-08T08:57:29.002Z,2.05
2023-09-08T08:59:55.829Z,2.95
2023-09-08T09:02:23.135Z,3.42
2023-09-08T09:04:50.332Z,3.30
2023-09-08T09:07:17.523Z,2.92
2023-09-08T09:09:44.177Z,3.53
2023-09-08T09:12:10.805Z,3.15
2023-09-08T09:14:37.461Z,3.25
2023-09-08T09:17:06.251Z,2.88
2023-09-08T09:19:33.298Z,3.28
2023-09-08T09:22:00.323Z,3.00
2023-09-08T09:24:42.508Z,3.47
2023-09-08T09:27:10.182Z,4.28
2023-09-08T09:29:48.023Z,3.63
2023-09-08T09:32:15.690Z,2.75
2023-09-08T09:34:48.862Z,3.30
2023-09-08T09:37:15.699Z,3.28
2023-09-08T09:39:42.400Z,3.55
2023-09-08T09:42:08.977Z,3.40
2023-09-08T09:44:35.670Z,2.80
2023-09-08T09:47:02.434Z,3.47
2023-09-08T09:49:33.342Z,2.78
2023-09-08T09:52:00.297Z,3.50
2023-09-08T09:54:27.059Z,3.42
2023-09-08T09:56:54.084Z,3.03
2023-09-08T09:59:20.976Z,2.47
2023-09-08T10:01:47.791Z,3.13
2023-09-08T10:04:16.845Z,3.25
2023-09-08T10:06:44.958Z,3.13
2023-09-08T10:09:15.073Z,2.75
2023-09-08T10:11:49.694Z,3.60
2023-09-08T10:14:17.345Z,3.30
2023-09-08T10:16:45.250Z,3.50
2023-09-08T10:19:11.944Z,3.50
2023-09-08T10:21:43.208Z,3.42
2023-09-08T10:24:17.180Z,3.22
2023-09-08T10:26:45.535Z,2.90
2023-09-08T10:29:12.753Z,3.08
2023-09-08T10:31:39.531Z,3.60
2023-09-08T10:34:06.469Z,3.25
2023-09-08T10:36:35.611Z,2.80
2023-09-08T10:39:22.121Z,2.88
2023-09-08T10:41:49.462Z,3.00
2023-09-08T10:44:16.246Z,2.30
2023-09-08T10:46:42.990Z,2.75
2023-09-08T10:49:11.618Z,3.03
2023-09-08T10:51:38.959Z,2.78
2023-09-08T10:54:07.324Z,2.85
2023-09-08T10:56:54.808Z,3.28
2023-09-08T10:59:23.090Z,2.65
2023-09-08T11:01:49.750Z,2.63
2023-09-08T11:04:20.613Z,2.42
2023-09-08T11:06:47.346Z,2.65
2023-09-08T11:09:13.905Z,2.80
2023-09-08T11:11:40.597Z,3.95
2023-09-08T11:14:07.186Z,2.60
2023-09-08T11:16:34.708Z,2.55
2023-09-08T11:19:05.885Z,3.08
2023-09-08T11:21:36.243Z,2.58
2023-09-08T11:24:07.137Z,2.60
2023-09-08T11:26:36.607Z,2.80
2023-09-08T11:29:04.101Z,3.27
2023-09-08T11:31:30.754Z,3.20
2023-09-08T11:33:57.686Z,3.20
2023-09-08T11:36:24.505Z,2.28
2023-09-08T11:38:51.087Z,2.78
2023-09-08T11:41:17.851Z,3.47
2023-09-08T11:43:44.630Z,2.60
2023-09-08T11:46:12.252Z,3.15
2023-09-08T11:48:39.760Z,2.78
2023-09-08T11:51:07.793Z,2.90
2023-09-08T11:53:34.842Z,2.85
2023-09-08T11:56:01.619Z,3.00
2023-09-08T11:58:28.431Z,2.95
2023-09-08T12:00:55.187Z,2.80
2023-09-08T12:03:21.934Z,3.00
2023-09-08T12:05:52.954Z,2.75
2023-09-08T12:08:19.729Z,2.83
2023-09-08T12:10:46.431Z,2.65
2023-09-08T12:13:15.223Z,3.38
2023-09-08T12:15:42.441Z,2.72
2023-09-08T12:18:09.921Z,3.08
2023-09-08T12:20:37.903Z,2.92
2023-09-08T12:23:16.163Z,2.70
2023-09-08T12:25:49.492Z,3.60
2023-09-08T12:28:16.816Z,2.90
2023-09-08T12:30:44.436Z,3.15
2023-09-08T12:33:16.477Z,3.92
2023-09-08T12:35:47.458Z,3.10
2023-09-08T12:38:14.582Z,3.10
2023-09-08T12:40:41.376Z,3.53
2023-09-08T12:43:16.232Z,3.20
2023-09-08T12:45:55.146Z,2.70
2023-09-08T12:48:22.003Z,3.03
2023-09-08T12:50:49.610Z,3.15
2023-09-08T12:53:16.575Z,2.60
2023-09-08T12:55:43.124Z,3.00
2023-09-08T12:58:09.809Z,2.80
2023-09-08T13:00:37.018Z,2.60
2023-09-08T13:03:03.963Z,3.13
2023-09-08T13:05:30.680Z,2.92
2023-09-08T13:07:57.292Z,2.83
2023-09-08T13:10:24.082Z,3.00
2023-09-08T13:12:50.758Z,2.70
2023-09-08T13:15:17.480Z,2.75
2023-09-08T13:17:44.526Z,3.00
2023-09-08T13:20:11.648Z,3.28
2023-09-08T13:22:38.512Z,3.58
2023-09-08T13:25:05.415Z,2.90
2023-09-08T13:27:31.964Z,3.20
2023-09-08T13:30:12.170Z,4.10
2023-09-08T13:32:39.160Z,2.83
2023-09-08T13:35:06.438Z,3.10
2023-09-08T13:37:33.133Z,3.17
2023-09-08T13:39:59.855Z,3.10
2023-09-08T13:42:26.538Z,3.28
2023-09-08T13:44:53.185Z,3.08
2023-09-08T13:47:20.161Z,2.80
2023-09-08T13:49:48.021Z,2.83
2023-09-08T13:52:16.218Z,2.72
2023-09-08T13:54:45.940Z,2.72
2023-09-08T13:57:14.367Z,2.90
2023-09-08T13:59:43.502Z,3.00
2023-09-08T14:02:36.093Z,3.00
2023-09-08T14:05:02.957Z,2.47
2023-09-08T14:10:06.547Z,2.70
2023-09-08T14:12:42.662Z,3.00
2023-09-08T14:15:09.646Z,3.28
2023-09-08T14:17:36.261Z,2.70
2023-09-08T14:20:04.047Z,3.13
2023-09-08T14:22:30.744Z,9.65
2023-09-08T14:24:57.604Z,2.92
2023-09-08T14:27:24.386Z,2.78
2023-09-08T14:29:51.152Z,3.20
2023-09-08T14:32:17.805Z,2.83
2023-09-08T14:34:44.589Z,3.65
2023-09-08T14:37:11.737Z,2.65
2023-09-08T14:39:38.484Z,2.90
2023-09-08T14:42:06.353Z,3.25
2023-09-08T14:44:32.967Z,2.65
2023-09-08T14:46:59.718Z,3.42
2023-09-08T14:49:26.318Z,3.53
2023-09-08T14:51:53.047Z,2.75
2023-09-08T14:54:19.625Z,3.50
2023-09-08T14:56:49.317Z,3.72
2023-09-08T14:59:15.986Z,3.17
2023-09-08T15:01:44.604Z,4.60
2023-09-08T15:04:11.639Z,3.22
2023-09-08T15:06:38.348Z,3.20
2023-09-08T15:09:05.313Z,2.95
2023-09-08T15:11:31.918Z,3.28
2023-09-08T15:13:58.813Z,3.03
2023-09-08T15:16:25.432Z,3.08
2023-09-08T15:18:52.028Z,2.70
2023-09-08T15:21:20.256Z,3.15
2023-09-08T15:23:46.824Z,3.33
2023-09-08T15:26:13.573Z,3.17
2023-09-08T15:28:40.171Z,2.70
2023-09-08T15:31:06.841Z,3.03
2023-09-08T15:33:33.645Z,3.90
2023-09-08T15:36:00.490Z,2.90
2023-09-08T15:38:27.273Z,2.83
2023-09-08T15:41:09.353Z,3.08
2023-09-08T15:43:37.735Z,2.85
2023-09-08T15:46:04.863Z,3.40
2023-09-08T15:48:31.447Z,2.80
2023-09-08T15:50:58.026Z,3.00
2023-09-08T15:53:24.596Z,3.08
2023-09-08T15:55:51.592Z,3.17
2023-09-08T15:58:18.321Z,3.28
2023-09-08T16:00:44.958Z,3.00
2023-09-08T16:03:11.653Z,3.63
2023-09-08T16:05:38.521Z,3.60
2023-09-08T16:08:05.213Z,3.38
2023-09-08T16:10:31.900Z,2.88
2023-09-08T16:12:59.549Z,3.20
2023-09-08T16:15:26.390Z,3.50
2023-09-08T16:17:53.019Z,4.70
2023-09-08T16:20:21.262Z,3.58
2023-09-08T16:22:48.027Z,3.63
2023-09-08T16:25:14.751Z,3.25
2023-09-08T16:27:41.445Z,3.33
2023-09-08T16:30:08.654Z,3.75
2023-09-08T16:32:35.333Z,3.53
2023-09-08T16:35:01.970Z,3.13
2023-09-08T16:37:28.557Z,4.05
2023-09-08T16:39:55.259Z,5.55
2023-09-08T16:42:21.863Z,4.32
2023-09-08T16:44:48.757Z,3.83
2023-09-08T16:47:15.510Z,3.63
2023-09-08T16:49:42.196Z,3.55
2023-09-08T16:52:08.839Z,3.78
2023-09-08T16:54:35.397Z,4.03
2023-09-08T16:57:02.126Z,3.67
2023-09-08T16:59:29.020Z,3.70
2023-09-08T17:01:55.650Z,3.50
2023-09-08T17:04:22.447Z,3.50
2023-09-08T17:06:49.189Z,3.53
2023-09-08T17:09:16.061Z,3.38
2023-09-08T17:11:42.848Z,4.45
2023-09-08T17:14:09.637Z,4.18
2023-09-08T17:16:36.262Z,3.75
2023-09-08T17:19:02.805Z,3.90
2023-09-08T17:21:29.842Z,4.30
2023-09-08T17:23:56.631Z,4.28
2023-09-08T17:26:23.304Z,3.50
2023-09-08T17:28:49.916Z,4.35
2023-09-08T17:31:16.654Z,3.90
2023-09-08T17:33:43.575Z,4.00
2023-09-08T17:36:10.176Z,4.03
2023-09-08T17:38:37.709Z,4.35
2023-09-08T17:41:04.274Z,4.05
2023-09-08T17:43:31.012Z,3.75
2023-09-08T17:45:58.126Z,3.70
2023-09-08T17:48:24.969Z,3.70
2023-09-08T17:50:51.939Z,3.90
2023-09-08T17:53:18.801Z,3.95
2023-09-08T17:55:45.376Z,4.35
2023-09-08T17:58:12.016Z,4.25
2023-09-08T18:00:38.758Z,4.88
2023-09-08T18:03:05.573Z,4.45
2023-09-08T18:05:32.311Z,4.95
2023-09-08T18:07:59.039Z,4.30
2023-09-08T18:10:25.967Z,3.92
2023-09-08T18:12:52.686Z,4.95
2023-09-08T18:15:19.616Z,3.88
2023-09-08T18:17:48.608Z,3.67
2023-09-08T18:20:15.729Z,4.13
2023-09-08T18:22:42.412Z,4.03
2023-09-08T18:25:09.422Z,3.95
2023-09-08T18:27:36.141Z,4.25
2023-09-08T18:30:02.807Z,5.45
2023-09-08T18:32:29.387Z,4.10
2023-09-08T18:34:56.070Z,4.70
2023-09-08T18:37:22.722Z,4.10
2023-09-08T18:39:49.738Z,4.13
2023-09-08T18:42:16.449Z,4.35
2023-09-08T18:44:43.708Z,4.25
2023-09-08T18:47:11.401Z,4.63
2023-09-08T18:49:38.095Z,4.60
2023-09-08T18:52:05.033Z,4.53
2023-09-08T18:54:33.440Z,5.60
2023-09-08T18:57:00.283Z,5.22
2023-09-08T18:59:26.874Z,5.53
2023-09-08T19:01:54.408Z,5.68
2023-09-08T19:04:21.121Z,5.93
2023-09-08T19:06:47.710Z,5.10
2023-09-08T19:09:14.375Z,4.93
2023-09-08T19:11:41.223Z,5.25
2023-09-08T19:14:07.803Z,5.95
2023-09-08T19:16:34.713Z,5.55
2023-09-08T19:19:01.456Z,4.50
2023-09-08T19:21:28.153Z,4.93
2023-09-08T19:23:54.932Z,4.95
2023-09-08T19:26:21.727Z,4.75
2023-09-08T19:28:48.432Z,5.07
2023-09-08T19:31:15.131Z,5.75
2023-09-08T19:33:42.819Z,5.60
2023-09-08T19:36:09.431Z,6.18
2023-09-08T19:38:36.008Z,7.32
2023-09-08T19:41:03.961Z,8.20
2023-09-08T19:43:31.205Z,8.88
2023-09-08T19:46:07.356Z,11.43
2023-09-08T19:48:37.536Z,12.50
2023-09-08T19:51:07.139Z,24.58
2023-09-08T19:53:33.832Z,30.08
2023-09-08T19:56:00.738Z,28.30
2023-09-08T19:58:30.768Z,26.25
2023-09-08T20:01:07.280Z,21.85
2023-09-08T20:03:35.699Z,18.42
2023-09-08T20:06:02.900Z,15.55
2023-09-08T20:08:29.734Z,9.05
2023-09-08T20:10:56.390Z,10.20
2023-09-08T20:13:22.999Z,12.52
2023-09-08T20:16:02.864Z,15.98
2023-09-08T20:18:30.218Z,15.50
2023-09-08T20:20:57.217Z,16.45
2023-09-08T20:23:25.139Z,13.90
2023-09-08T20:25:51.809Z,11.85
2023-09-08T20:28:18.510Z,11.57
2023-09-08T20:30:45.997Z,12.32
2023-09-08T20:33:15.459Z,13.75
2023-09-08T20:35:48.326Z,13.95
2023-09-08T20:38:16.282Z,14.38
2023-09-08T20:40:52.656Z,15.90
2023-09-08T20:43:24.286Z,14.02
2023-09-08T20:45:57.900Z,12.32
2023-09-08T20:48:24.582Z,10.07
2023-09-08T20:50:59.131Z,8.90
2023-09-08T20:53:25.695Z,9.90
2023-09-08T20:55:52.275Z,9.10
2023-09-08T20:58:18.899Z,9.02
2023-09-08T21:00:45.504Z,7.65
2023-09-08T21:03:12.255Z,9.27
2023-09-08T21:05:38.966Z,8.13
2023-09-08T21:08:05.701Z,9.65
2023-09-08T21:10:33.282Z,10.73
2023-09-08T21:12:59.984Z,7.57
2023-09-08T21:15:26.582Z,10.02
2023-09-08T21:17:53.299Z,10.60
2023-09-08T21:20:20.352Z,10.10
2023-09-08T21:22:46.908Z,8.70
2023-09-08T21:25:13.592Z,7.78
2023-09-08T21:27:40.172Z,9.00
2023-09-08T21:30:07.247Z,8.90
2023-09-08T21:32:33.813Z,8.98
2023-09-08T21:35:00.615Z,7.75
2023-09-08T21:37:27.431Z,7.03
2023-09-08T21:39:54.133Z,6.88
2023-09-08T21:42:20.872Z,7.05
2023-09-08T21:44:47.434Z,7.25
2023-09-08T21:47:13.981Z,12.70
2023-09-08T21:49:40.765Z,7.28
2023-09-08T21:52:07.418Z,6.72
2023-09-08T21:54:34.060Z,7.18
2023-09-08T21:57:00.659Z,6.93
2023-09-08T21:59:28.905Z,7.20
2023-09-08T22:01:57.580Z,8.48
2023-09-08T22:04:24.573Z,8.55
2023-09-08T22:06:51.475Z,7.88
2023-09-08T22:09:19.208Z,7.72
2023-09-08T22:11:45.971Z,7.70
2023-09-08T22:14:15.775Z,6.60
2023-09-08T22:16:42.565Z,6.93
2023-09-08T22:19:09.917Z,7.30
2023-09-08T22:21:36.646Z,6.80
2023-09-08T22:24:03.558Z,8.90
2023-09-08T22:26:30.137Z,6.95
2023-09-08T22:28:56.947Z,6.78
2023-09-08T22:31:24.047Z,7.75
2023-09-08T22:33:50.912Z,7.43
2023-09-08T22:36:17.571Z,7.60
2023-09-08T22:38:44.241Z,8.45
2023-09-08T22:41:11.028Z,8.48
2023-09-08T22:43:37.709Z,9.20
2023-09-08T22:46:04.544Z,9.68
2023-09-08T22:48:31.332Z,9.30
2023-09-08T22:50:57.999Z,7.60
2023-09-08T22:53:25.081Z,7.95
2023-09-08T22:55:51.856Z,8.73
2023-09-08T22:58:18.589Z,9.20
2023-09-08T23:00:45.205Z,7.45
2023-09-08T23:03:11.872Z,7.57
2023-09-08T23:05:38.719Z,7.95
2023-09-08T23:08:05.664Z,7.15
2023-09-08T23:10:32.311Z,7.18
2023-09-08T23:12:59.037Z,8.63
2023-09-08T23:15:26.275Z,8.10
2023-09-08T23:17:53.155Z,8.05
2023-09-08T23:20:19.868Z,8.32
2023-09-08T23:22:46.589Z,8.43
2023-09-08T23:25:13.718Z,8.00
2023-09-08T23:27:40.830Z,8.40
2023-09-08T23:30:08.103Z,7.15
2023-09-08T23:32:34.693Z,8.20
2023-09-08T23:35:02.047Z,8.48
2023-09-08T23:37:28.676Z,7.88
2023-09-08T23:39:55.267Z,8.60
2023-09-08T23:42:21.824Z,7.90
2023-09-08T23:44:48.555Z,8.13
2023-09-08T23:47:15.103Z,8.30
2023-09-08T23:49:42.002Z,8.77
2023-09-08T23:52:08.663Z,7.78
2023-09-08T23:54:35.247Z,7.30
2023-09-08T23:57:03.694Z,8.32
